Time;durP1;ratioP1;P1;durP2;ratioP2;P2;SDS_P1;SDS_P2;PMS_P1;PMS_P2;Temp;Humidity;BMP_temperature;BMP_pressure;BME280_temperature;BME280_humidity;BME280_pressure;Samples;Min_cycle;Max_cycle;Signal;HPM_P1;HPM_P2
2021/12/02 00:02:24;;;;;;;8.83;6.95;;;;;;;-0.74;91.53;99426.93;1784841;80;21331;-84
2021/12/02 00:05:29;;;;;;;12.30;8.50;;;;;;;-0.78;91.61;99427.17;1785864;80;21809;-77
2021/12/02 00:08:35;;;;;;;10.53;7.10;;;;;;;-0.81;91.71;99426.06;1785766;80;21334;-81
2021/12/02 00:11:41;;;;;;;10.68;7.10;;;;;;;-0.81;91.83;99426.56;1785666;80;21161;-78
2021/12/02 00:14:48;;;;;;;10.75;7.45;;;;;;;-0.82;91.96;99427.55;1784872;80;21359;-83
2021/12/02 00:18:19;;;;;;;9.58;7.08;;;;;;;-0.83;92.09;99432.56;1785601;80;21303;-82
2021/12/02 00:21:07;;;;;;;11.63;8.08;;;;;;;-0.85;92.15;99440.75;1785888;80;21299;-82
2021/12/02 00:24:23;;;;;;;10.65;7.75;;;;;;;-0.86;92.16;99448.41;1785111;80;21169;-78
2021/12/02 00:27:25;;;;;;;11.12;8.08;;;;;;;-0.85;92.25;99447.92;1785945;80;21304;-83
2021/12/02 00:30:30;;;;;;;12.70;7.97;;;;;;;-0.89;92.05;99459.42;1785819;80;21161;-77
2021/12/02 00:33:37;;;;;;;12.37;8.55;;;;;;;-0.92;91.90;99463.69;1786015;80;21260;-83
2021/12/02 00:36:43;;;;;;;11.18;8.38;;;;;;;-0.92;91.89;99458.32;1786026;80;21181;-77
2021/12/02 00:39:48;;;;;;;13.10;8.80;;;;;;;-0.91;91.61;99466.73;1785998;80;21589;-80
2021/12/02 00:42:55;;;;;;;12.50;9.15;;;;;;;-0.90;91.46;99483.20;1785988;80;21814;-82
2021/12/02 00:46:00;;;;;;;11.48;8.68;;;;;;;-0.92;91.45;99478.45;1786106;80;21256;-83
2021/12/02 00:49:06;;;;;;;12.28;9.18;;;;;;;-0.94;91.51;99472.37;1785995;80;21671;-84
2021/12/02 00:52:12;;;;;;;12.93;9.28;;;;;;;-0.95;91.64;99472.47;1786013;80;22164;-79
2021/12/02 00:55:17;;;;;;;13.10;8.85;;;;;;;-0.99;91.47;99479.91;1785702;80;21168;-84
2021/12/02 00:58:23;;;;;;;11.75;9.30;;;;;;;-1.08;91.18;99478.84;1785986;80;21248;-82
2021/12/02 01:01:38;;;;;;;13.20;10.30;;;;;;;-1.16;90.94;99484.45;1786042;80;21153;-81
2021/12/02 01:04:39;;;;;;;14.73;10.30;;;;;;;-1.24;90.86;99488.22;1785969;80;21184;-83
2021/12/02 01:07:43;;;;;;;14.28;10.18;;;;;;;-1.25;91.15;99494.08;1785961;80;21172;-77
2021/12/02 01:10:51;;;;;;;12.33;9.80;;;;;;;-1.27;91.16;99490.68;1785782;80;21228;-77
2021/12/02 01:13:56;;;;;;;14.07;10.08;;;;;;;-1.31;91.07;99491.40;1785847;80;21161;-83
2021/12/02 01:17:03;;;;;;;14.58;10.30;;;;;;;-1.33;91.04;99497.84;1785993;80;21138;-79
2021/12/02 01:20:07;;;;;;;14.33;9.20;;;;;;;-1.38;90.99;99500.89;1785952;80;21311;-83
2021/12/02 01:23:14;;;;;;;14.90;10.10;;;;;;;-1.44;90.74;99501.38;1785929;80;21189;-78
2021/12/02 01:26:19;;;;;;;13.88;10.55;;;;;;;-1.51;90.40;99502.81;1784845;80;21324;-77
2021/12/02 01:29:25;;;;;;;13.00;10.30;;;;;;;-1.59;90.35;99507.94;1772551;80;21200;-83
2021/12/02 01:32:31;;;;;;;16.90;9.88;;;;;;;-1.63;90.42;99511.34;1785952;80;21213;-82
2021/12/02 01:35:36;;;;;;;17.17;10.88;;;;;;;-1.67;90.33;99511.70;1785905;80;21180;-77
2021/12/02 01:38:42;;;;;;;16.48;10.63;;;;;;;-1.70;90.47;99503.39;1785976;80;21295;-77
2021/12/02 01:41:59;;;;;;;14.75;10.65;;;;;;;-1.69;90.78;99505.61;1785785;80;21758;-83
2021/12/02 01:45:04;;;;;;;14.13;10.10;;;;;;;-1.66;91.22;99506.69;1784919;80;21192;-78
2021/12/02 01:48:09;;;;;;;21.30;11.28;;;;;;;-1.71;91.29;99520.45;1785883;80;21164;-84
2021/12/02 01:51:15;;;;;;;16.65;10.85;;;;;;;-1.74;91.20;99524.73;1785884;80;21260;-78
2021/12/02 01:54:25;;;;;;;15.65;10.65;;;;;;;-1.77;91.16;99526.78;1785458;80;21342;-83
2021/12/02 01:57:35;;;;;;;12.50;8.80;;;;;;;-1.76;91.22;99525.81;1786063;80;21204;-81
2021/12/02 02:00:46;;;;;;;14.35;10.75;;;;;;;-1.72;91.72;99519.24;1786072;80;21188;-83
2021/12/02 02:03:52;;;;;;;18.17;10.60;;;;;;;-1.71;91.71;99515.58;1785706;80;21725;-83
2021/12/02 02:07:08;;;;;;;15.72;11.50;;;;;;;-1.73;91.67;99522.91;1785965;80;21145;-78
2021/12/02 02:10:13;;;;;;;19.12;10.58;;;;;;;-1.74;91.72;99518.48;1785920;79;21721;-83
2021/12/02 02:13:20;;;;;;;17.52;11.15;;;;;;;-1.74;91.65;99515.80;1717676;83;21316;-77
2021/12/02 02:16:25;;;;;;;15.08;10.43;;;;;;;-1.71;91.76;99515.58;1717693;83;21508;-78
2021/12/02 02:19:32;;;;;;;13.55;9.83;;;;;;;-1.66;91.86;99508.89;1717156;83;21316;-83
2021/12/02 02:22:38;;;;;;;13.48;9.80;;;;;;;-1.61;91.66;99511.21;1747377;82;21900;-78
2021/12/02 02:25:45;;;;;;;13.60;10.50;;;;;;;-1.68;90.88;99505.48;1755226;80;21288;-84
2021/12/02 02:28:51;;;;;;;15.53;11.00;;;;;;;-1.76;90.42;99503.87;1775880;80;21291;-76
2021/12/02 02:31:57;;;;;;;15.48;10.23;;;;;;;-1.82;90.43;99498.50;1778937;80;21268;-77
2021/12/02 02:35:02;;;;;;;15.43;10.60;;;;;;;-1.87;90.51;99499.34;1777990;80;21311;-82
2021/12/02 02:38:08;;;;;;;14.63;10.40;;;;;;;-1.90;90.45;99504.92;1778940;80;21299;-82
2021/12/02 02:41:19;;;;;;;16.02;11.95;;;;;;;-1.93;90.25;99505.17;1778637;80;21801;-83
2021/12/02 02:44:21;;;;;;;18.15;11.33;;;;;;;-1.97;89.96;99501.02;1779269;80;21188;-78
2021/12/02 02:47:27;;;;;;;15.30;10.15;;;;;;;-1.96;89.97;99510.76;1780001;80;21157;-84
2021/12/02 02:50:32;;;;;;;19.65;12.37;;;;;;;-1.94;90.30;99514.16;1778720;80;21196;-77
2021/12/02 02:53:38;;;;;;;18.00;13.93;;;;;;;-1.94;90.51;99508.80;1779846;80;21185;-77
2021/12/02 02:57:03;;;;;;;17.00;12.35;;;;;;;-1.92;90.52;99508.71;1779379;80;21876;-84
2021/12/02 03:00:16;;;;;;;18.98;14.38;;;;;;;-1.88;90.22;99508.36;1778945;80;21367;-82
2021/12/02 03:03:28;;;;;;;18.95;14.63;;;;;;;-1.89;89.40;99505.28;1780160;80;21201;-77
2021/12/02 03:06:34;;;;;;;17.60;14.05;;;;;;;-1.90;89.19;99512.11;1780171;80;21264;-83
2021/12/02 03:13:10;;;;;;;16.60;12.13;;;;;;;-1.82;89.19;99527.14;1778914;80;21283;-83
2021/12/02 03:19:34;;;;;;;20.72;13.62;;;;;;;-1.87;88.56;99530.16;1779463;80;21327;-83
2021/12/02 03:22:39;;;;;;;20.88;13.08;;;;;;;-1.90;88.45;99526.86;1779874;80;21169;-84
2021/12/02 03:25:44;;;;;;;16.32;11.90;;;;;;;-1.94;88.18;99533.41;1778475;80;21300;-84
2021/12/02 03:28:50;;;;;;;15.50;10.20;;;;;;;-1.99;88.00;99535.59;1778021;80;21271;-83
2021/12/02 03:31:54;;;;;;;20.92;13.83;;;;;;;-2.07;87.98;99549.55;1780157;80;21272;-79
2021/12/02 03:35:01;;;;;;;22.73;14.50;;;;;;;-2.11;88.24;99550.29;1780026;80;21200;-77
2021/12/02 03:38:07;;;;;;;29.82;16.45;;;;;;;-2.11;88.38;99557.48;1778460;80;21176;-77
2021/12/02 03:41:12;;;;;;;29.35;14.53;;;;;;;-2.11;88.61;99557.48;1780090;80;21727;-82
2021/12/02 03:44:17;;;;;;;30.88;14.93;;;;;;;-2.15;88.62;99568.05;1779985;80;21197;-77
2021/12/02 03:47:22;;;;;;;21.93;11.65;;;;;;;-2.22;88.79;99563.61;1780238;80;21233;-83
2021/12/02 03:50:27;;;;;;;14.13;9.90;;;;;;;-2.30;88.96;99564.69;1780051;80;21193;-77
2021/12/02 03:53:32;;;;;;;15.90;10.82;;;;;;;-2.40;89.02;99563.17;1778441;80;21283;-83
2021/12/02 03:56:37;;;;;;;19.07;11.25;;;;;;;-2.52;89.36;99556.02;1778727;80;21165;-78
2021/12/02 03:59:43;;;;;;;16.57;10.55;;;;;;;-2.58;89.84;99563.17;1779325;80;21347;-77
2021/12/02 04:02:50;;;;;;;14.25;10.72;;;;;;;-2.61;90.36;99566.05;1778557;80;21308;-77
2021/12/02 04:05:56;;;;;;;16.75;11.05;;;;;;;-2.67;90.55;99565.17;1776756;80;21280;-83
2021/12/02 04:09:12;;;;;;;19.48;12.15;;;;;;;-2.79;90.90;99570.05;1775853;80;21300;-83
2021/12/02 04:15:37;;;;;;;18.50;12.63;;;;;;;-2.97;92.29;99570.39;1778744;80;21193;-77
2021/12/02 04:18:41;;;;;;;21.37;13.28;;;;;;;-2.98;93.27;99569.17;1748678;82;21299;-75
2021/12/02 04:21:47;;;;;;;22.42;13.95;;;;;;;-2.97;93.85;99570.39;1717633;82;21272;-82
2021/12/02 04:24:52;;;;;;;30.68;16.48;;;;;;;-2.96;94.35;99573.47;1747784;82;21326;-77
2021/12/02 04:27:57;;;;;;;21.07;13.30;;;;;;;-2.94;94.66;99576.88;1748394;82;21333;-77
2021/12/02 04:31:02;;;;;;;23.42;13.88;;;;;;;-2.95;94.87;99579.67;1749818;81;21269;-77
2021/12/02 04:34:07;;;;;;;24.95;16.57;;;;;;;-2.95;95.21;99574.31;1745370;82;21200;-83
2021/12/02 04:37:13;;;;;;;24.23;14.83;;;;;;;-2.93;95.63;99581.73;1761385;81;21296;-80
2021/12/02 04:40:20;;;;;;;24.35;15.63;;;;;;;-2.91;96.04;99584.70;1758123;81;21343;-83
2021/12/02 04:43:26;;;;;;;30.60;17.20;;;;;;;-2.83;96.59;99591.67;1736117;81;21304;-77
2021/12/02 04:46:31;;;;;;;32.90;20.27;;;;;;;-2.73;97.07;99600.39;1735407;82;21300;-83
2021/12/02 04:49:37;;;;;;;34.33;19.10;;;;;;;-2.64;97.48;99597.91;1758431;81;21312;-77
2021/12/02 04:52:41;;;;;;;24.20;14.33;;;;;;;-2.55;97.58;99587.52;1765750;81;21166;-80
2021/12/02 04:55:47;;;;;;;27.60;16.57;;;;;;;-2.50;97.64;99595.58;1743128;82;21307;-83
2021/12/02 04:58:53;;;;;;;19.50;14.20;;;;;;;-2.59;97.18;99594.90;1742960;81;21336;-83
2021/12/02 05:01:58;;;;;;;23.80;16.17;;;;;;;-2.69;97.10;99595.20;1726893;83;21343;-76
2021/12/02 05:05:05;;;;;;;23.07;14.55;;;;;;;-2.77;97.26;99590.89;1733888;83;21917;-82
2021/12/02 05:08:10;;;;;;;32.15;19.90;;;;;;;-2.81;97.60;99588.91;1738195;81;21198;-83
2021/12/02 05:11:15;;;;;;;33.58;19.90;;;;;;;-2.80;97.94;99592.44;1758011;81;21327;-83
2021/12/02 05:14:21;;;;;;;28.20;15.68;;;;;;;-2.73;98.45;99591.02;1757235;81;21308;-76
2021/12/02 05:17:27;;;;;;;32.05;19.35;;;;;;;-2.67;98.64;99601.31;1756945;81;21284;-83
2021/12/02 05:20:33;;;;;;;28.07;17.17;;;;;;;-2.70;98.70;99598.36;1756786;81;21693;-83
2021/12/02 05:23:40;;;;;;;32.38;19.45;;;;;;;-2.71;98.97;99595.80;1757948;81;21272;-82
2021/12/02 05:26:46;;;;;;;30.08;19.15;;;;;;;-2.72;99.27;99600.30;1757333;81;21813;-78
2021/12/02 05:29:53;;;;;;;33.02;18.10;;;;;;;-2.72;99.51;99596.28;1745922;81;21163;-76
2021/12/02 05:32:59;;;;;;;36.53;20.50;;;;;;;-2.70;99.75;99594.83;1729559;83;21832;-82
2021/12/02 05:36:05;;;;;;;32.70;18.27;;;;;;;-2.69;100.00;99602.73;1729338;81;21293;-77
2021/12/02 05:39:10;;;;;;;33.48;21.25;;;;;;;-2.62;100.00;99610.72;1686229;85;21367;-77
2021/12/02 05:42:16;;;;;;;29.52;18.35;;;;;;;-2.48;100.00;99617.77;1699910;83;21319;-77
2021/12/02 05:45:23;;;;;;;35.48;19.20;;;;;;;-2.32;100.00;99617.02;1708164;83;21192;-83
2021/12/02 05:48:29;;;;;;;24.77;14.90;;;;;;;-2.17;100.00;99620.39;1691244;84;21311;-78
2021/12/02 05:51:34;;;;;;;28.23;17.12;;;;;;;-1.99;100.00;99618.19;1704830;83;21321;-83
2021/12/02 05:54:39;;;;;;;27.67;17.65;;;;;;;-1.87;100.00;99623.99;1702474;83;21676;-78
2021/12/02 05:57:45;;;;;;;25.77;16.87;;;;;;;-1.80;100.00;99628.40;1675080;85;21176;-77
2021/12/02 06:00:56;;;;;;;27.40;17.75;;;;;;;-1.70;100.00;99633.92;1701657;83;21367;-76
2021/12/02 06:04:03;;;;;;;34.30;20.80;;;;;;;-1.65;100.00;99633.95;1700435;83;21342;-77
2021/12/02 06:07:08;;;;;;;30.62;19.60;;;;;;;-1.61;100.00;99647.50;1695211;83;21312;-83
2021/12/02 06:10:15;;;;;;;35.10;19.80;;;;;;;-1.47;100.00;99651.83;1696299;83;21929;-77
2021/12/02 06:13:21;;;;;;;38.17;20.37;;;;;;;-1.39;100.00;99660.64;1696760;83;21864;-84
2021/12/02 06:16:29;;;;;;;32.95;19.85;;;;;;;-1.43;100.00;99655.99;1699927;83;21343;-76
2021/12/02 06:19:35;;;;;;;37.95;21.80;;;;;;;-1.46;100.00;99665.59;1732312;81;21263;-77
2021/12/02 06:22:40;;;;;;;35.40;21.90;;;;;;;-1.48;100.00;99654.63;1728767;81;21296;-77
2021/12/02 06:25:49;;;;;;;35.25;22.48;;;;;;;-1.50;100.00;99658.78;1731945;81;21300;-77
2021/12/02 06:28:54;;;;;;;40.35;23.95;;;;;;;-1.51;100.00;99654.36;1733140;81;21296;-77
2021/12/02 06:32:03;;;;;;;44.25;24.52;;;;;;;-1.47;100.00;99660.36;1692351;82;21291;-83
2021/12/02 06:35:08;;;;;;;41.75;25.00;;;;;;;-1.41;100.00;99655.41;1724151;82;21859;-83
2021/12/02 06:38:22;;;;;;;44.80;25.30;;;;;;;-1.35;100.00;99661.64;1728551;81;21268;-84
2021/12/02 06:41:28;;;;;;;42.15;25.55;;;;;;;-1.27;100.00;99651.67;1737364;81;21967;-78
2021/12/02 06:44:36;;;;;;;48.95;27.37;;;;;;;-1.16;100.00;99652.19;1738103;80;21176;-84
2021/12/02 06:47:42;;;;;;;43.13;24.90;;;;;;;-1.05;100.00;99649.52;1735317;80;21212;-84
2021/12/02 06:50:48;;;;;;;38.05;23.92;;;;;;;-0.99;100.00;99648.18;1737971;80;21752;-84
2021/12/02 06:53:55;;;;;;;36.85;22.17;;;;;;;-0.91;100.00;99653.33;1737184;80;21306;-84
2021/12/02 06:57:02;;;;;;;39.38;23.45;;;;;;;-0.77;100.00;99662.99;1733761;80;21190;-76
2021/12/02 07:00:08;;;;;;;32.93;20.82;;;;;;;-0.63;100.00;99674.00;1733153;80;21205;-76
2021/12/02 07:03:13;;;;;;;38.40;22.37;;;;;;;-0.49;100.00;99664.85;1722545;81;21346;-77
2021/12/02 07:06:20;;;;;;;31.60;19.73;;;;;;;-0.34;100.00;99656.91;1736652;80;21635;-76
2021/12/02 07:09:25;;;;;;;32.83;21.33;;;;;;;-0.15;100.00;99669.72;1734728;80;21686;-76
2021/12/02 07:12:33;;;;;;;35.68;22.00;;;;;;;0.01;100.00;99670.20;1736633;80;21802;-76
2021/12/02 07:15:50;;;;;;;30.45;19.67;;;;;;;0.16;100.00;99667.59;1736193;80;22011;-77
2021/12/02 07:18:54;;;;;;;35.55;20.48;;;;;;;0.32;100.00;99670.36;1733987;80;21887;-76
2021/12/02 07:21:56;;;;;;;33.73;21.27;;;;;;;0.47;100.00;99672.66;1737906;80;21288;-76
2021/12/02 07:25:03;;;;;;;37.33;20.97;;;;;;;0.60;100.00;99670.27;1727969;81;21220;-76
2021/12/02 07:28:08;;;;;;;25.20;18.25;;;;;;;0.69;100.00;99666.31;1729426;81;21247;-77
2021/12/02 07:31:15;;;;;;;29.98;18.17;;;;;;;0.79;100.00;99680.34;1722626;81;21715;-77
2021/12/02 07:34:21;;;;;;;31.45;18.87;;;;;;;0.80;100.00;99678.89;1725562;81;21188;-76
2021/12/02 07:37:27;;;;;;;30.23;19.48;;;;;;;0.81;100.00;99682.44;1728386;81;21308;-84
2021/12/02 07:40:38;;;;;;;33.78;20.25;;;;;;;0.77;100.00;99687.22;1730694;81;21188;-84
2021/12/02 07:43:44;;;;;;;24.82;17.65;;;;;;;0.77;100.00;99691.25;1726076;81;22399;-84
2021/12/02 07:46:49;;;;;;;33.92;21.45;;;;;;;0.82;100.00;99690.87;1726465;81;21912;-84
2021/12/02 07:49:58;;;;;;;32.42;20.00;;;;;;;0.86;100.00;99682.90;1725713;81;21666;-85
2021/12/02 07:53:06;;;;;;;32.10;20.97;;;;;;;0.89;100.00;99698.77;1727805;81;21266;-84
2021/12/02 07:56:12;;;;;;;34.92;19.80;;;;;;;0.91;100.00;99690.95;1725617;81;21617;-84
2021/12/02 07:59:18;;;;;;;33.55;19.90;;;;;;;0.96;100.00;99694.59;1729911;81;21371;-83
2021/12/02 08:02:24;;;;;;;31.80;18.92;;;;;;;1.00;100.00;99692.86;1729637;81;21290;-85
2021/12/02 08:05:30;;;;;;;27.20;17.50;;;;;;;1.02;100.00;99681.94;1740127;80;21273;-86
2021/12/02 08:08:37;;;;;;;28.85;18.12;;;;;;;1.06;100.00;99683.39;1739412;80;21267;-77
2021/12/02 08:11:42;;;;;;;26.05;17.87;;;;;;;1.10;100.00;99699.66;1740239;80;21630;-77
2021/12/02 08:14:49;;;;;;;23.35;16.00;;;;;;;1.14;100.00;99693.03;1700946;80;21197;-78
2021/12/02 08:17:55;;;;;;;22.82;15.95;;;;;;;1.22;100.00;99694.58;1740140;80;21263;-76
2021/12/02 08:20:59;;;;;;;23.10;15.95;;;;;;;1.33;100.00;99696.84;1736521;80;21348;-78
2021/12/02 08:24:06;;;;;;;25.15;15.88;;;;;;;1.43;100.00;99684.27;1735969;80;21280;-77
2021/12/02 08:27:15;;;;;;;27.60;15.90;;;;;;;1.68;100.00;99680.27;1739507;80;21291;-79
2021/12/02 08:30:22;;;;;;;25.72;15.25;;;;;;;1.68;100.00;99680.27;1737932;80;21933;-78
2021/12/02 08:33:31;;;;;;;20.50;14.53;;;;;;;1.84;100.00;99675.75;1713349;80;21222;-78
2021/12/02 08:36:56;;;;;;;18.05;13.48;;;;;;;1.96;100.00;99661.16;1744032;80;21298;-87
2021/12/02 08:39:47;;;;;;;19.20;13.75;;;;;;;2.07;100.00;99650.73;1708655;80;21788;-82
2021/12/02 08:42:53;;;;;;;16.40;12.40;;;;;;;2.18;100.00;99645.25;1748518;80;21307;-83
2021/12/02 08:45:59;;;;;;;18.65;12.30;;;;;;;2.30;99.26;99642.27;1747950;80;21805;-85
2021/12/02 08:49:04;;;;;;;17.07;12.13;;;;;;;2.38;97.35;99631.28;1746020;80;21321;-84
2021/12/02 08:52:09;;;;;;;17.40;13.15;;;;;;;2.39;95.80;99643.77;1748312;80;21303;-82
2021/12/02 08:55:15;;;;;;;17.23;13.08;;;;;;;2.36;95.01;99644.92;1746796;80;21855;-84
2021/12/02 08:58:21;;;;;;;17.15;12.75;;;;;;;2.35;94.66;99643.70;1747025;80;21575;-84
2021/12/02 09:01:28;;;;;;;19.45;12.60;;;;;;;2.40;94.75;99637.38;1748580;80;22112;-84
2021/12/02 09:04:34;;;;;;;17.55;12.63;;;;;;;2.47;94.51;99631.78;1747065;80;21311;-85
2021/12/02 09:07:40;;;;;;;18.70;13.72;;;;;;;2.58;94.49;99632.98;1750572;80;21908;-84
2021/12/02 09:10:47;;;;;;;20.02;12.85;;;;;;;2.62;93.55;99620.91;1750369;80;21697;-85
2021/12/02 09:13:56;;;;;;;17.82;13.25;;;;;;;2.67;92.79;99629.44;1746359;80;21308;-85
2021/12/02 09:17:04;;;;;;;21.07;14.47;;;;;;;2.73;92.34;99628.89;1722499;80;21275;-87
2021/12/02 09:20:15;;;;;;;16.23;11.63;;;;;;;2.84;92.27;99617.08;1744818;80;21282;-79
2021/12/02 09:23:25;;;;;;;18.00;13.08;;;;;;;2.92;91.65;99611.81;1742906;80;21305;-78
2021/12/02 09:26:32;;;;;;;18.40;13.03;;;;;;;2.91;90.99;99604.67;1746362;80;21733;-79
2021/12/02 09:29:40;;;;;;;18.67;11.88;;;;;;;2.87;90.79;99598.36;1742816;80;21185;-87
2021/12/02 09:32:46;;;;;;;17.52;11.63;;;;;;;2.90;90.92;99589.97;1747923;80;21636;-84
2021/12/02 09:35:55;;;;;;;15.58;11.35;;;;;;;2.96;90.92;99579.93;1738109;80;21348;-80
2021/12/02 09:39:01;;;;;;;15.00;11.22;;;;;;;3.00;90.58;99574.09;1699798;80;21205;-87
2021/12/02 09:42:15;;;;;;;13.32;9.50;;;;;;;3.05;89.97;99572.30;1711359;80;21189;-88
2021/12/02 09:45:28;;;;;;;14.60;10.58;;;;;;;3.12;88.93;99568.03;1733581;80;21440;-80
2021/12/02 09:48:38;;;;;;;13.15;10.08;;;;;;;3.19;88.60;99561.02;1715356;80;21320;-79
2021/12/02 09:52:08;;;;;;;16.50;10.35;;;;;;;3.24;88.03;99556.02;1733324;80;22124;-87
2021/12/02 09:55:19;;;;;;;14.95;9.90;;;;;;;3.26;87.15;99554.05;1686513;81;21282;-79
2021/12/02 09:58:29;;;;;;;15.45;9.60;;;;;;;3.28;86.93;99542.57;1776894;78;21154;-80
2021/12/02 10:01:50;;;;;;;15.30;9.68;;;;;;;3.37;86.91;99544.04;1773690;78;21343;-80
2021/12/02 10:05:00;;;;;;;11.83;9.25;;;;;;;3.50;86.87;99537.80;1776122;79;21299;-85
2021/12/02 10:08:05;;;;;;;14.30;9.78;;;;;;;3.58;86.74;99536.55;1716134;82;21248;-84
2021/12/02 10:11:13;;;;;;;15.10;10.10;;;;;;;3.65;86.07;99528.17;1779660;78;21631;-83
2021/12/02 10:14:37;;;;;;;11.55;8.98;;;;;;;3.78;85.75;99530.52;1779795;78;22133;-79
2021/12/02 10:17:51;;;;;;;13.03;9.65;;;;;;;3.88;85.36;99522.34;1777172;78;21268;-81
2021/12/02 10:21:06;;;;;;;10.98;8.55;;;;;;;4.05;84.43;99514.75;1776400;78;22402;-78
2021/12/02 10:24:15;;;;;;;13.28;8.68;;;;;;;4.20;83.76;99513.20;1778903;78;21173;-82
2021/12/02 10:27:23;;;;;;;15.45;8.93;;;;;;;4.32;82.93;99503.81;1778296;78;21868;-83
2021/12/02 10:30:30;;;;;;;11.25;8.13;;;;;;;4.41;82.42;99495.27;1773774;78;21428;-84
2021/12/02 10:33:50;;;;;;;14.55;7.53;;;;;;;4.46;81.87;99489.38;1776112;78;21098;-86
2021/12/02 10:36:58;;;;;;;13.80;8.20;;;;;;;4.47;81.32;99488.36;1782920;77;21322;-80
2021/12/02 10:40:16;;;;;;;10.65;7.12;;;;;;;4.46;81.41;99485.31;1789321;77;21278;-79
2021/12/02 10:43:22;;;;;;;12.60;7.28;;;;;;;4.47;81.41;99474.83;1790739;77;21365;-79
2021/12/02 10:46:27;;;;;;;9.03;6.78;;;;;;;4.50;81.88;99466.39;1789663;77;21749;-81
2021/12/02 10:49:32;;;;;;;12.98;7.75;;;;;;;4.56;82.25;99465.75;1788723;79;21609;-79
2021/12/02 10:52:39;;;;;;;10.20;7.17;;;;;;;4.56;82.83;99457.16;1787679;79;21177;-79
2021/12/02 10:55:45;;;;;;;10.23;6.40;;;;;;;4.63;82.94;99456.51;1787205;79;21476;-84
2021/12/02 10:58:52;;;;;;;11.25;6.47;;;;;;;4.66;83.26;99458.41;1785410;77;21291;-83
2021/12/02 11:02:00;;;;;;;10.08;5.90;;;;;;;4.70;84.00;99449.42;1785047;79;21208;-83
2021/12/02 11:05:18;;;;;;;11.22;6.35;;;;;;;4.71;84.47;99438.45;1790935;79;21192;-84
2021/12/02 11:08:21;;;;;;;9.85;6.12;;;;;;;4.73;85.15;99436.42;1793561;79;21168;-83
2021/12/02 11:11:36;;;;;;;10.48;6.33;;;;;;;4.74;85.63;99427.78;1792181;77;21335;-92
2021/12/02 11:14:45;;;;;;;11.15;6.90;;;;;;;4.78;86.03;99419.17;1794707;79;21323;-85
2021/12/02 11:17:59;;;;;;;11.50;6.28;;;;;;;4.84;86.62;99421.73;1797090;78;21735;-85
2021/12/02 11:21:07;;;;;;;8.18;5.87;;;;;;;4.90;87.13;99420.27;1790045;79;21330;-86
2021/12/02 11:24:11;;;;;;;8.15;6.00;;;;;;;4.96;87.87;99405.55;1777935;79;21184;-87
2021/12/02 11:27:32;;;;;;;12.18;5.20;;;;;;;5.03;88.52;99393.55;1789973;77;21800;-84
2021/12/02 11:30:40;;;;;;;11.05;5.35;;;;;;;5.14;89.13;99397.33;1793824;79;21877;-86
2021/12/02 11:33:52;;;;;;;9.43;5.35;;;;;;;5.22;89.46;99389.23;1793003;77;21913;-87
2021/12/02 11:36:58;;;;;;;8.43;5.17;;;;;;;5.28;90.12;99396.70;1734245;80;21755;-80
2021/12/02 11:40:03;;;;;;;10.43;5.12;;;;;;;5.34;90.76;99387.90;1704192;82;22243;-79
2021/12/02 11:43:11;;;;;;;9.30;4.83;;;;;;;5.47;91.33;99380.66;1725361;81;21898;-79
2021/12/02 11:46:18;;;;;;;5.83;4.28;;;;;;;5.60;91.45;99386.96;1728746;81;21165;-87
2021/12/02 11:49:25;;;;;;;10.50;4.87;;;;;;;5.74;91.57;99381.36;1725521;81;21319;-79
2021/12/02 11:52:31;;;;;;;6.55;4.37;;;;;;;5.80;91.46;99373.41;1735228;81;21373;-85
2021/12/02 11:55:42;;;;;;;6.83;4.53;;;;;;;5.83;91.50;99367.66;1703698;82;21296;-88
2021/12/02 11:58:49;;;;;;;7.47;4.30;;;;;;;5.90;91.77;99372.73;1712194;81;21185;-79
2021/12/02 12:01:55;;;;;;;11.18;4.75;;;;;;;5.94;91.91;99373.80;1726034;81;21295;-78
2021/12/02 12:05:10;;;;;;;7.92;4.62;;;;;;;5.96;92.04;99370.39;1680061;81;21395;-84
2021/12/02 12:08:50;;;;;;;12.55;4.65;;;;;;;5.94;92.34;99360.22;1728261;81;21601;-87
2021/12/02 12:11:55;;;;;;;11.85;4.60;;;;;;;5.93;92.80;99357.14;1702739;82;21173;-84
2021/12/02 12:15:04;;;;;;;6.12;4.37;;;;;;;5.94;93.39;99356.15;1707136;81;21296;-85
2021/12/02 12:18:11;;;;;;;10.65;4.67;;;;;;;5.99;93.93;99349.70;1711155;81;21303;-84
2021/12/02 12:21:19;;;;;;;7.97;5.05;;;;;;;6.07;94.25;99353.27;1710918;81;21335;-81
2021/12/02 12:24:54;;;;;;;8.93;4.87;;;;;;;6.14;94.50;99358.33;1708161;81;21959;-78
2021/12/02 12:28:07;;;;;;;31.33;6.37;;;;;;;6.20;94.72;99354.08;1712489;81;21242;-78
2021/12/02 12:31:20;;;;;;;11.50;5.72;;;;;;;6.25;94.82;99350.33;1705090;83;21189;-78
2021/12/02 12:34:56;;;;;;;11.28;5.78;;;;;;;6.26;95.14;99350.70;1710256;83;21283;-79
2021/12/02 12:37:54;;;;;;;15.50;5.12;;;;;;;6.28;95.57;99345.92;1713327;81;21681;-79
2021/12/02 12:41:05;;;;;;;6.72;3.72;;;;;;;6.35;96.00;99345.59;1739879;80;21260;-78
2021/12/02 12:44:12;;;;;;;5.28;3.65;;;;;;;6.43;96.60;99343.86;1725930;81;21198;-79
2021/12/02 12:47:19;;;;;;;7.42;3.08;;;;;;;6.52;97.26;99341.47;1787271;79;21355;-79
2021/12/02 12:50:41;;;;;;;10.93;2.90;;;;;;;6.61;97.68;99345.34;1783780;79;21910;-78
2021/12/02 12:53:50;;;;;;;7.70;2.42;;;;;;;6.69;97.92;99340.41;1790972;79;21208;-80
2021/12/02 12:56:56;;;;;;;7.97;2.70;;;;;;;6.75;98.13;99331.55;1795463;79;21167;-84
2021/12/02 13:00:02;;;;;;;11.65;2.80;;;;;;;6.86;98.42;99328.94;1788618;79;21294;-84
2021/12/02 13:03:15;;;;;;;7.90;2.60;;;;;;;6.90;98.58;99328.41;1787305;79;21306;-79
2021/12/02 13:06:31;;;;;;;8.03;3.20;;;;;;;6.96;98.67;99314.62;1742756;80;21800;-85
2021/12/02 13:09:53;;;;;;;6.65;2.15;;;;;;;7.01;98.82;99325.84;1786111;79;21290;-76
2021/12/02 13:12:59;;;;;;;7.72;2.50;;;;;;;7.06;98.98;99319.35;1793293;79;21896;-86
2021/12/02 13:16:26;;;;;;;6.87;2.77;;;;;;;7.10;99.25;99315.22;1789949;79;21267;-86
2021/12/02 13:19:31;;;;;;;3.37;2.20;;;;;;;7.14;99.50;99317.08;1785805;79;21610;-78
2021/12/02 13:22:37;;;;;;;6.95;2.60;;;;;;;7.16;99.62;99306.38;1797171;79;21189;-82
2021/12/02 13:26:05;;;;;;;8.35;2.58;;;;;;;7.20;99.70;99304.16;1794766;79;21184;-85
2021/12/02 13:29:28;;;;;;;5.90;2.33;;;;;;;7.20;99.73;99302.80;1780125;80;21352;-87
2021/12/02 13:32:34;;;;;;;8.40;3.10;;;;;;;7.20;100.00;99304.16;1798636;77;21295;-86
2021/12/02 13:35:49;;;;;;;9.70;3.02;;;;;;;7.18;100.00;99306.19;1787475;79;21283;-84
2021/12/02 13:39:11;;;;;;;5.28;2.58;;;;;;;7.21;100.00;99307.72;1781789;77;21742;-86
2021/12/02 13:42:20;;;;;;;7.37;2.55;;;;;;;7.19;100.00;99301.07;1784431;79;21311;-86
2021/12/02 13:45:26;;;;;;;8.48;2.77;;;;;;;7.17;100.00;99290.90;1787845;79;21335;-78
2021/12/02 13:48:32;;;;;;;5.20;2.30;;;;;;;7.16;100.00;99301.45;1796598;79;21915;-79
2021/12/02 13:55:15;;;;;;;4.22;2.05;;;;;;;7.16;100.00;99296.02;1728492;82;21205;-78
2021/12/02 13:58:30;;;;;;;9.45;3.02;;;;;;;7.13;100.00;99299.92;1714103;80;21172;-87
2021/12/02 14:01:41;;;;;;;8.58;3.20;;;;;;;7.12;100.00;99296.03;1727452;81;21142;-77
2021/12/02 14:04:53;;;;;;;5.75;2.20;;;;;;;7.09;100.00;99307.25;1724885;82;21339;-85
2021/12/02 14:07:57;;;;;;;7.85;2.50;;;;;;;7.04;100.00;99306.43;1732021;82;21268;-84
2021/12/02 14:11:02;;;;;;;9.18;3.60;;;;;;;7.02;100.00;99303.05;1748303;81;21327;-79
2021/12/02 14:14:07;;;;;;;7.78;2.58;;;;;;;7.01;100.00;99305.93;1759201;81;21869;-78
2021/12/02 14:17:14;;;;;;;6.78;2.52;;;;;;;7.01;100.00;99304.57;1750766;81;21777;-86
2021/12/02 14:20:19;;;;;;;7.05;3.85;;;;;;;7.00;100.00;99306.96;1740415;81;21205;-85
2021/12/02 14:23:40;;;;;;;7.17;2.62;;;;;;;7.02;100.00;99296.77;1747268;81;21276;-85
2021/12/02 14:26:45;;;;;;;10.18;2.80;;;;;;;7.02;100.00;99300.85;1745899;81;21220;-85
2021/12/02 14:29:51;;;;;;;9.88;2.85;;;;;;;7.04;100.00;99302.34;1740625;81;21628;-79
2021/12/02 14:32:57;;;;;;;7.35;2.70;;;;;;;7.09;100.00;99311.34;1742532;81;21261;-84
2021/12/02 14:36:08;;;;;;;8.73;3.10;;;;;;;7.12;100.00;99300.95;1745567;81;21315;-80
2021/12/02 14:39:20;;;;;;;5.15;2.47;;;;;;;7.16;100.00;99300.94;1748614;81;22025;-86
2021/12/02 14:42:24;;;;;;;5.75;2.60;;;;;;;7.18;100.00;99298.03;1756582;81;21173;-86
2021/12/02 14:45:29;;;;;;;9.10;2.92;;;;;;;7.19;100.00;99301.07;1692103;82;21289;-85
2021/12/02 14:48:35;;;;;;;11.08;3.42;;;;;;;7.22;100.00;99289.84;1712334;83;21800;-79